メインページ
METAR-TAF:

METAR-TAF

空港 :

ヌアクショット, モーリタニア

ヌアクショット空港

緯度: 18-18-36N, 経度: 015-58-11W, 海抜: 3m

現時点の気象観測

当レポートは47分前の09:00(UTC)に作成
北/北西の風 13kt
気温 19°C
湿度 88%
気圧 1013 hPa
視程: 6000m

METAR: GQNO 250900Z 33013KT 6000 NSC 19/17 Q1013 NOSIG

時間: 09:47 (09:47 UTC)

予報

当レポートは4時間47分前の05:00(UTC)に作成
予報は25日の 06時(UTC)から 26日の 12時(UTC)まで有効
の風 12kt
視程: 6000m

TAF: GQNO 250500Z 2506/2612 36012KT 6000 NSC

4,000以上の空港の気象観測と天気予報(METAR報とTAF報)

利用可能な観測所は地図上に黄色い丸と赤い丸で示す。

丸の上にカーソルを重ねると観測所名を参照できる。

次にクリックすると気象観測と天気予報を参照できる。

マップの切り替え:黒色「×」印の緑ボタンをクリックして拡大、「-」印の緑ボタンをクリックして縮小、緑色の三角印をクリックして隣りの地図に切り替え


METAR-TAF: